createdAt,value
2022-11-14T00:01:55.731Z,100767.16
2022-11-14T00:04:40.977Z,100765.28
2022-11-14T00:07:30.069Z,100759.09
2022-11-14T00:10:15.626Z,100759.63
2022-11-14T00:13:00.762Z,100766.28
2022-11-14T00:15:50.125Z,100760.13
2022-11-14T00:18:35.391Z,100764.78
2022-11-14T00:21:20.578Z,100753.84
2022-11-14T00:24:05.888Z,100752.59
2022-11-14T00:26:50.906Z,100748.34
2022-11-14T00:29:36.346Z,100756.47
2022-11-14T00:32:22.430Z,100760.88
2022-11-14T00:35:11.553Z,100747.03
2022-11-14T00:37:57.250Z,100748.13
2022-11-14T00:40:42.131Z,100744.72
2022-11-14T00:43:27.518Z,100741.19
2022-11-14T00:46:12.764Z,100736.59
2022-11-14T00:48:58.140Z,100739.38
2022-11-14T00:51:43.577Z,100731.97
2022-11-14T00:54:28.962Z,100733.50
2022-11-14T00:57:14.892Z,100734.91
2022-11-14T01:00:00.157Z,100716.16
2022-11-14T01:02:45.820Z,100717.06
2022-11-14T01:05:31.003Z,100714.59
2022-11-14T01:08:18.835Z,100715.06
2022-11-14T01:11:13.295Z,100716.50
2022-11-14T01:13:58.451Z,100703.09
2022-11-14T01:16:43.689Z,100704.41
2022-11-14T01:19:28.956Z,100697.34
2022-11-14T01:22:14.417Z,100695.47
2022-11-14T01:24:59.617Z,100688.72
2022-11-14T01:27:44.726Z,100686.38
2022-11-14T01:30:29.834Z,100686.97
2022-11-14T01:33:15.190Z,100679.50
2022-11-14T01:36:00.528Z,100672.72
2022-11-14T01:38:46.546Z,100672.97
2022-11-14T01:41:31.644Z,100670.59
2022-11-14T01:44:38.120Z,100658.38
2022-11-14T01:47:28.902Z,100652.44
2022-11-14T01:50:13.848Z,100649.69
2022-11-14T01:52:59.129Z,100645.56
2022-11-14T01:55:45.178Z,100645.69
2022-11-14T01:58:38.526Z,100640.06
2022-11-14T02:01:25.723Z,100637.97
2022-11-14T02:04:15.490Z,100636.59
2022-11-14T02:07:03.199Z,100633.41
2022-11-14T02:09:49.748Z,100634.31
2022-11-14T02:12:34.998Z,100631.59
2022-11-14T02:15:20.267Z,100628.53
2022-11-14T02:18:05.402Z,100622.16
2022-11-14T02:20:50.617Z,100628.16
2022-11-14T02:23:35.510Z,100629.91
2022-11-14T02:26:22.155Z,100622.13
2022-11-14T02:29:09.260Z,100627.47
2022-11-14T02:31:54.721Z,100625.41
2022-11-14T02:34:39.902Z,100622.72
2022-11-14T02:37:25.451Z,100623.03
2022-11-14T02:40:11.453Z,100620.78
2022-11-14T02:42:56.821Z,100616.56
2022-11-14T02:45:42.237Z,100618.25
2022-11-14T02:48:27.588Z,100619.59
2022-11-14T02:51:13.665Z,100611.25
2022-11-14T02:53:58.986Z,100604.22
2022-11-14T02:56:44.554Z,100589.53
2022-11-14T02:59:29.936Z,100596.53
2022-11-14T03:02:14.946Z,100594.66
2022-11-14T03:05:00.157Z,100586.28
2022-11-14T03:07:45.687Z,100585.13
2022-11-14T03:10:31.647Z,100592.47
2022-11-14T03:13:16.596Z,100582.38
2022-11-14T03:16:08.260Z,100576.91
2022-11-14T03:18:53.699Z,100576.59
2022-11-14T03:21:38.841Z,100573.84
2022-11-14T03:24:24.373Z,100576.25
2022-11-14T03:27:09.708Z,100576.56
2022-11-14T03:29:54.933Z,100579.16
2022-11-14T03:32:40.153Z,100573.53
2022-11-14T03:35:25.011Z,100579.81
2022-11-14T03:38:10.441Z,100580.00
2022-11-14T03:40:58.966Z,100576.22
2022-11-14T03:43:44.279Z,100576.59
2022-11-14T03:46:29.522Z,100579.66
2022-11-14T03:49:14.852Z,100581.03
2022-11-14T03:52:00.364Z,100583.41
2022-11-14T03:54:45.448Z,100576.03
2022-11-14T03:57:30.634Z,100569.00
2022-11-14T04:00:16.185Z,100571.50
2022-11-14T04:03:01.286Z,100565.88
2022-11-14T04:05:46.600Z,100568.72
2022-11-14T04:08:32.480Z,100570.06
2022-11-14T04:11:18.830Z,100572.31
2022-11-14T04:14:04.034Z,100563.78
2022-11-14T04:16:49.378Z,100566.47
2022-11-14T04:19:34.542Z,100567.28
2022-11-14T04:22:19.521Z,100555.69
2022-11-14T04:25:05.511Z,100553.50
2022-11-14T04:27:51.230Z,100540.19
2022-11-14T04:30:36.309Z,100544.91
2022-11-14T04:33:22.312Z,100547.47
2022-11-14T04:36:07.430Z,100540.16
2022-11-14T04:38:52.821Z,100541.34
2022-11-14T04:41:38.013Z,100531.81
2022-11-14T04:44:23.194Z,100534.03
2022-11-14T04:47:08.564Z,100533.69
2022-11-14T04:49:53.769Z,100532.56
2022-11-14T04:52:39.087Z,100536.75
2022-11-14T04:55:24.387Z,100529.75
2022-11-14T04:58:09.477Z,100533.16
2022-11-14T05:00:57.631Z,100525.97
2022-11-14T05:03:42.926Z,100527.44
2022-11-14T05:06:28.371Z,100525.75
2022-11-14T05:09:13.453Z,100522.38
2022-11-14T05:11:58.537Z,100519.47
2022-11-14T05:14:43.547Z,100512.00
2022-11-14T05:17:29.187Z,100502.78
2022-11-14T05:20:14.931Z,100509.25
2022-11-14T05:23:00.136Z,100499.69
2022-11-14T05:25:45.699Z,100501.03
2022-11-14T05:28:31.768Z,100499.84
2022-11-14T05:31:20.380Z,100495.25
2022-11-14T05:34:06.549Z,100494.72
2022-11-14T05:36:51.492Z,100489.75
2022-11-14T05:39:36.636Z,100492.34
2022-11-14T05:42:22.554Z,100486.88
2022-11-14T05:45:08.237Z,100491.50
2022-11-14T05:47:54.494Z,100487.06
2022-11-14T05:50:39.644Z,100489.78
2022-11-14T05:53:26.178Z,100480.75
2022-11-14T05:56:12.791Z,100493.72
2022-11-14T05:58:58.385Z,100483.31
2022-11-14T06:01:43.840Z,100481.78
2022-11-14T06:04:29.289Z,100479.19
2022-11-14T06:07:19.770Z,100470.66
2022-11-14T06:10:05.835Z,100475.31
2022-11-14T06:12:51.567Z,100473.19
2022-11-14T06:15:36.998Z,100474.09
2022-11-14T06:18:22.273Z,100468.25
2022-11-14T06:21:18.767Z,100471.47
2022-11-14T06:24:04.229Z,100477.00
2022-11-14T06:26:49.787Z,100485.88
2022-11-14T06:29:35.745Z,100474.09
2022-11-14T06:32:21.425Z,100493.00
2022-11-14T06:35:08.452Z,100495.97
2022-11-14T06:37:53.965Z,100497.88
2022-11-14T06:40:39.361Z,100494.13
2022-11-14T06:43:24.506Z,100494.13
2022-11-14T06:46:12.326Z,100480.50
2022-11-14T06:48:57.654Z,100484.31
2022-11-14T06:51:42.844Z,100492.53
2022-11-14T06:54:27.997Z,100502.22
2022-11-14T06:57:13.614Z,100483.63
2022-11-14T06:59:58.779Z,100485.31
2022-11-14T07:02:46.248Z,100477.50
2022-11-14T07:05:31.225Z,100477.84
2022-11-14T07:08:20.819Z,100469.13
2022-11-14T07:11:12.506Z,100467.63
2022-11-14T07:14:00.026Z,100469.66
2022-11-14T07:16:45.409Z,100470.13
2022-11-14T07:19:30.840Z,100466.53
2022-11-14T07:22:16.318Z,100476.47
2022-11-14T07:25:01.493Z,100474.91
2022-11-14T07:27:46.743Z,100468.09
2022-11-14T07:30:33.381Z,100477.50
2022-11-14T07:33:18.687Z,100475.91
2022-11-14T07:36:04.297Z,100471.31
2022-11-14T07:38:49.958Z,100469.63
2022-11-14T07:41:35.032Z,100460.72
2022-11-14T07:44:20.271Z,100466.53
2022-11-14T07:47:05.579Z,100463.47
2022-11-14T07:49:50.959Z,100470.28
2022-11-14T07:52:36.252Z,100478.53
2022-11-14T07:55:21.949Z,100474.78
2022-11-14T07:58:06.920Z,100479.91
2022-11-14T08:00:52.220Z,100482.13
2022-11-14T08:03:42.355Z,100475.81
2022-11-14T08:06:30.587Z,100479.91
2022-11-14T08:09:16.271Z,100484.53
2022-11-14T08:12:01.618Z,100473.72
2022-11-14T08:14:46.744Z,100471.69
2022-11-14T08:17:31.872Z,100469.25
2022-11-14T08:20:17.615Z,100469.41
2022-11-14T08:23:05.753Z,100463.75
2022-11-14T08:25:50.938Z,100464.44
2022-11-14T08:28:36.244Z,100465.56
2022-11-14T08:31:21.784Z,100460.75
2022-11-14T08:34:07.216Z,100463.31
2022-11-14T08:36:52.298Z,100450.16
2022-11-14T08:39:37.351Z,100458.84
2022-11-14T08:42:22.553Z,100458.84
2022-11-14T08:45:08.192Z,100458.84
2022-11-14T08:47:53.866Z,100453.88
2022-11-14T08:50:39.144Z,100451.91
2022-11-14T08:53:24.765Z,100465.16
2022-11-14T08:56:11.106Z,100454.16
2022-11-14T08:58:56.670Z,100445.25
2022-11-14T09:01:42.669Z,100445.50
2022-11-14T09:04:28.042Z,100455.09
2022-11-14T09:07:14.617Z,100451.84
2022-11-14T09:10:00.281Z,100447.00
2022-11-14T09:12:45.758Z,100441.59
2022-11-14T09:15:31.267Z,100441.81
2022-11-14T09:18:16.701Z,100434.75
2022-11-14T09:21:07.280Z,100453.09
2022-11-14T09:23:55.092Z,100444.84
2022-11-14T09:26:42.485Z,100441.53
2022-11-14T09:29:27.596Z,100460.91
2022-11-14T09:32:12.814Z,100451.00
2022-11-14T09:34:58.336Z,100449.47
2022-11-14T09:37:43.885Z,100439.72
2022-11-14T09:40:30.954Z,100438.78
2022-11-14T09:43:31.653Z,100435.41
2022-11-14T09:46:22.710Z,100438.16
2022-11-14T09:49:24.171Z,100434.03
2022-11-14T09:52:28.380Z,100442.84
2022-11-14T09:55:43.905Z,100441.31
2022-11-14T09:58:29.543Z,100449.41
2022-11-14T10:01:31.425Z,100442.13
2022-11-14T10:04:50.442Z,100436.63
2022-11-14T10:07:48.914Z,100439.84
2022-11-14T10:10:56.258Z,100428.84
2022-11-14T10:13:57.784Z,100435.97
2022-11-14T10:16:57.969Z,100428.91
2022-11-14T10:20:02.160Z,100428.50
2022-11-14T10:23:12.651Z,100425.34
2022-11-14T10:26:08.949Z,100423.56
2022-11-14T10:28:54.024Z,100425.34
2022-11-14T10:31:53.823Z,100431.44
2022-11-14T10:34:48.592Z,100415.47
2022-11-14T10:37:53.122Z,100422.38
2022-11-14T10:40:45.520Z,100414.22
2022-11-14T10:43:36.612Z,100430.00
2022-11-14T10:46:37.594Z,100424.56
2022-11-14T10:49:25.464Z,100428.09
2022-11-14T10:52:18.109Z,100422.75
2022-11-14T10:55:07.592Z,100421.69
2022-11-14T10:57:53.077Z,100423.28
2022-11-14T11:00:38.466Z,100434.91
2022-11-14T11:03:40.503Z,100439.41
2022-11-14T11:06:27.566Z,100435.44
2022-11-14T11:09:43.783Z,100427.53
2022-11-14T11:12:50.330Z,100421.69
2022-11-14T11:15:40.798Z,100414.34
2022-11-14T11:18:36.870Z,100407.84
2022-11-14T11:21:23.348Z,100399.19
2022-11-14T11:24:09.417Z,100383.59
2022-11-14T11:27:18.518Z,100372.66
2022-11-14T11:30:33.288Z,100372.38
2022-11-14T11:33:21.507Z,100371.66
2022-11-14T11:36:17.998Z,100384.25
2022-11-14T11:39:03.643Z,100360.28
2022-11-14T11:42:08.741Z,100350.94
2022-11-14T11:44:59.947Z,100364.38
2022-11-14T11:47:53.466Z,100369.09
2022-11-14T11:50:40.999Z,100357.56
2022-11-14T11:53:34.040Z,100328.75
2022-11-14T11:56:26.355Z,100305.38
2022-11-14T11:59:40.666Z,100321.00
2022-11-14T12:02:27.130Z,100317.91
2022-11-14T12:05:16.384Z,100323.31
2022-11-14T12:08:06.417Z,100312.53
2022-11-14T12:10:53.930Z,100310.94
2022-11-14T12:14:20.993Z,100292.88
2022-11-14T12:17:52.593Z,100294.38
2022-11-14T12:20:50.071Z,100297.78
2022-11-14T12:24:07.069Z,100300.94
2022-11-14T12:27:30.962Z,100296.72
2022-11-14T12:30:23.804Z,100290.59
2022-11-14T12:33:19.718Z,100302.84
2022-11-14T12:36:10.434Z,100305.34
2022-11-14T12:38:55.945Z,100305.84
2022-11-14T12:41:41.938Z,100302.44
2022-11-14T12:44:27.335Z,100300.38
2022-11-14T12:47:15.519Z,100295.28
2022-11-14T12:50:03.126Z,100293.16
2022-11-14T12:52:53.971Z,100305.88
2022-11-14T12:55:54.329Z,100302.91
2022-11-14T12:58:48.611Z,100309.47
2022-11-14T13:02:00.917Z,100305.03
2022-11-14T13:05:16.678Z,100313.50
2022-11-14T13:08:28.321Z,100309.06
2022-11-14T13:11:50.018Z,100311.38
2022-11-14T13:15:14.247Z,100310.13
2022-11-14T13:18:31.587Z,100301.22
2022-11-14T13:21:45.147Z,100299.09
2022-11-14T13:24:58.624Z,100275.19
2022-11-14T13:31:22.736Z,100275.00
2022-11-14T13:34:37.824Z,100271.38
2022-11-14T13:37:44.836Z,100268.63
2022-11-14T13:40:54.238Z,100273.69
2022-11-14T13:44:03.854Z,100270.34
2022-11-14T13:47:04.580Z,100263.56
2022-11-14T13:50:13.568Z,100269.06
2022-11-14T13:52:59.306Z,100265.25
2022-11-14T13:55:59.695Z,100265.44
2022-11-14T13:59:14.526Z,100260.59
2022-11-14T14:02:19.448Z,100262.69
2022-11-14T14:05:29.371Z,100248.25
2022-11-14T14:08:31.538Z,100234.72
2022-11-14T14:11:29.010Z,100243.63
2022-11-14T14:14:28.796Z,100226.22
2022-11-14T14:17:36.179Z,100220.31
2022-11-14T14:20:38.526Z,100219.03
2022-11-14T14:23:35.836Z,100212.66
2022-11-14T14:26:32.889Z,100215.00
2022-11-14T14:29:27.923Z,100214.75
2022-11-14T14:32:18.548Z,100209.22
2022-11-14T14:35:27.470Z,100213.50
2022-11-14T14:38:21.211Z,100217.28
2022-11-14T14:41:06.876Z,100226.59
2022-11-14T14:43:55.238Z,100213.47
2022-11-14T14:46:40.651Z,100204.78
2022-11-14T14:49:30.509Z,100209.66
2022-11-14T14:52:25.443Z,100205.44
2022-11-14T14:55:20.638Z,100216.25
2022-11-14T14:58:23.455Z,100216.06
2022-11-14T15:01:14.882Z,100206.91
2022-11-14T15:04:06.337Z,100199.53
2022-11-14T15:06:52.247Z,100183.81
2022-11-14T15:09:37.298Z,100181.50
2022-11-14T15:12:29.038Z,100180.84
2022-11-14T15:15:16.429Z,100177.88
2022-11-14T15:18:07.101Z,100167.28
2022-11-14T15:21:14.930Z,100169.19
2022-11-14T15:24:18.402Z,100171.06
2022-11-14T15:27:20.464Z,100161.13
2022-11-14T15:30:19.047Z,100168.38
2022-11-14T15:33:06.704Z,100167.06
2022-11-14T15:36:06.973Z,100170.22
2022-11-14T15:39:01.128Z,100177.47
2022-11-14T15:41:46.286Z,100183.59
2022-11-14T15:44:33.524Z,100178.75
2022-11-14T15:47:30.282Z,100192.53
2022-11-14T15:50:15.350Z,100190.84
2022-11-14T15:53:04.034Z,100183.59
2022-11-14T15:55:49.584Z,100186.16
2022-11-14T15:58:34.745Z,100186.59
2022-11-14T16:01:25.756Z,100193.16
2022-11-14T16:04:16.099Z,100188.06
2022-11-14T16:07:01.488Z,100179.16
2022-11-14T16:09:46.990Z,100194.00
2022-11-14T16:12:32.201Z,100191.44
2022-11-14T16:15:19.093Z,100179.56
2022-11-14T16:18:05.842Z,100186.13
2022-11-14T16:20:51.736Z,100184.63
2022-11-14T16:23:36.565Z,100185.31
2022-11-14T16:26:21.914Z,100182.75
2022-11-14T16:29:07.936Z,100179.81
2022-11-14T16:31:55.295Z,100172.59
2022-11-14T16:34:40.752Z,100174.31
2022-11-14T16:37:26.197Z,100172.59
2022-11-14T16:40:23.048Z,100169.41
2022-11-14T16:43:13.638Z,100164.13
2022-11-14T16:46:03.921Z,100155.19
2022-11-14T16:48:49.150Z,100158.59
2022-11-14T16:51:48.138Z,100157.75
2022-11-14T16:54:34.481Z,100157.34
2022-11-14T16:57:19.814Z,100148.66
2022-11-14T17:00:06.143Z,100138.47
2022-11-14T17:02:51.415Z,100150.09
2022-11-14T17:05:48.659Z,100141.41
2022-11-14T17:08:34.092Z,100150.31
2022-11-14T17:11:19.222Z,100144.81
2022-11-14T17:14:04.989Z,100143.91
2022-11-14T17:16:50.038Z,100147.72
2022-11-14T17:19:35.160Z,100146.94
2022-11-14T17:22:20.160Z,100146.47
2022-11-14T17:25:05.661Z,100148.16
2022-11-14T17:27:51.211Z,100152.25
2022-11-14T17:30:43.376Z,100139.47
2022-11-14T17:33:28.993Z,100136.13
2022-11-14T17:36:14.465Z,100138.47
2022-11-14T17:38:59.931Z,100136.56
2022-11-14T17:41:45.728Z,100134.25
2022-11-14T17:44:30.871Z,100131.72
2022-11-14T17:47:15.862Z,100123.19
2022-11-14T17:50:01.264Z,100117.25
2022-11-14T17:52:46.339Z,100125.13
2022-11-14T17:55:31.624Z,100122.56
2022-11-14T17:58:16.791Z,100106.25
2022-11-14T18:01:02.173Z,100114.53
2022-11-14T18:03:47.666Z,100120.66
2022-11-14T18:06:33.645Z,100114.09
2022-11-14T18:09:18.860Z,100113.69
2022-11-14T18:12:04.642Z,100113.47
2022-11-14T18:14:50.110Z,100107.09
2022-11-14T18:17:35.409Z,100114.94
2022-11-14T18:20:20.583Z,100113.25
2022-11-14T18:23:05.691Z,100105.78
2022-11-14T18:25:51.312Z,100112.16
2022-11-14T18:28:36.467Z,100104.91
2022-11-14T18:31:22.572Z,100112.16
2022-11-14T18:34:07.585Z,100108.34
2022-11-14T18:36:53.009Z,100117.00
2022-11-14T18:39:37.971Z,100112.59
2022-11-14T18:42:23.339Z,100110.66
2022-11-14T18:45:08.783Z,100113.41
2022-11-14T18:47:53.929Z,100101.94
2022-11-14T18:50:39.540Z,100110.88
2022-11-14T18:53:24.644Z,100115.78
2022-11-14T18:56:12.152Z,100108.34
2022-11-14T18:58:57.842Z,100112.19
2022-11-14T19:01:43.914Z,100109.22
2022-11-14T19:04:29.637Z,100096.09
2022-11-14T19:07:15.278Z,100101.16
2022-11-14T19:10:00.919Z,100098.84
2022-11-14T19:12:49.580Z,100105.44
2022-11-14T19:15:35.124Z,100103.50
2022-11-14T19:18:21.567Z,100106.88
2022-11-14T19:21:06.626Z,100111.94
2022-11-14T19:23:53.762Z,100118.97
2022-11-14T19:26:39.242Z,100104.56
2022-11-14T19:29:25.331Z,100111.09
2022-11-14T19:32:10.421Z,100092.47
2022-11-14T19:34:55.898Z,100109.44
2022-11-14T19:37:41.267Z,100110.13
2022-11-14T19:40:27.860Z,100106.06
2022-11-14T19:43:12.991Z,100105.03
2022-11-14T19:46:03.497Z,100099.50
2022-11-14T19:48:49.118Z,100109.69
2022-11-14T19:51:34.595Z,100110.13
2022-11-14T19:54:19.787Z,100105.84
2022-11-14T19:57:05.223Z,100110.53
2022-11-14T19:59:50.307Z,100107.97
2022-11-14T20:02:39.646Z,100111.78
2022-11-14T20:05:25.081Z,100107.78
2022-11-14T20:08:09.994Z,100109.88
2022-11-14T20:11:03.058Z,100107.53
2022-11-14T20:13:48.444Z,100110.09
2022-11-14T20:16:35.305Z,100107.56
2022-11-14T20:19:20.656Z,100114.78
2022-11-14T20:22:06.641Z,100107.56
2022-11-14T20:24:51.991Z,100103.56
2022-11-14T20:27:37.355Z,100119.03
2022-11-14T20:30:22.897Z,100119.88
2022-11-14T20:33:09.094Z,100110.78
2022-11-14T20:35:54.875Z,100119.47
2022-11-14T20:38:40.258Z,100113.94
2022-11-14T20:41:25.658Z,100114.56
2022-11-14T20:44:11.664Z,100116.25
2022-11-14T20:46:57.081Z,100115.00
2022-11-14T20:49:43.346Z,100120.91
2022-11-14T20:52:28.595Z,100125.16
2022-11-14T20:55:15.572Z,100119.88
2022-11-14T20:58:00.881Z,100125.38
2022-11-14T21:00:46.231Z,100133.41
2022-11-14T21:03:31.797Z,100130.66
2022-11-14T21:06:17.457Z,100121.38
2022-11-14T21:09:02.779Z,100128.75
2022-11-14T21:11:48.164Z,100124.09
2022-11-14T21:14:34.408Z,100113.72
2022-11-14T21:17:19.715Z,100111.81
2022-11-14T21:20:05.113Z,100111.38
2022-11-14T21:22:50.317Z,100110.53
2022-11-14T21:25:35.785Z,100113.94
2022-11-14T21:28:21.151Z,100095.50
2022-11-14T21:31:44.478Z,100107.16
2022-11-14T21:34:29.949Z,100115.41
2022-11-14T21:37:15.255Z,100116.69
2022-11-14T21:40:00.599Z,100107.59
2022-11-14T21:42:46.236Z,100112.47
2022-11-14T21:45:31.490Z,100103.56
2022-11-14T21:48:16.820Z,100112.66
2022-11-14T21:51:04.398Z,100104.19
2022-11-14T21:53:54.643Z,100104.19
2022-11-14T21:56:40.071Z,100104.63
2022-11-14T21:59:27.482Z,100087.66
2022-11-14T22:02:31.671Z,100097.00
2022-11-14T22:05:17.028Z,100095.72
2022-11-14T22:08:02.327Z,100095.72
2022-11-14T22:10:47.373Z,100092.09
2022-11-14T22:13:33.047Z,100091.88
2022-11-14T22:16:19.594Z,100089.53
2022-11-14T22:19:05.902Z,100093.34
2022-11-14T22:21:51.741Z,100092.28
2022-11-14T22:24:36.917Z,100094.63
2022-11-14T22:27:22.173Z,100093.56
2022-11-14T22:30:08.174Z,100091.84
2022-11-14T22:32:53.373Z,100091.66
2022-11-14T22:35:38.741Z,100089.53
2022-11-14T22:38:23.779Z,100084.25
2022-11-14T22:41:14.488Z,100085.72
2022-11-14T22:44:00.322Z,100094.41
2022-11-14T22:46:45.576Z,100097.78
2022-11-14T22:49:30.902Z,100088.06
2022-11-14T22:52:15.802Z,100085.91
2022-11-14T22:55:01.692Z,100091.66
2022-11-14T22:57:47.138Z,100091.00
2022-11-14T23:00:32.382Z,100093.13
2022-11-14T23:03:21.319Z,100081.44
2022-11-14T23:06:15.371Z,100093.31
2022-11-14T23:09:02.366Z,100087.16
2022-11-14T23:11:47.451Z,100091.00
2022-11-14T23:14:32.759Z,100081.44
2022-11-14T23:17:17.849Z,100088.03
2022-11-14T23:20:03.261Z,100078.69
2022-11-14T23:22:48.497Z,100079.53
2022-11-14T23:25:35.849Z,100080.16
2022-11-14T23:28:21.289Z,100079.53
2022-11-14T23:31:08.615Z,100079.69
2022-11-14T23:33:55.590Z,100074.41
2022-11-14T23:36:40.872Z,100075.25
2022-11-14T23:39:26.365Z,100074.44
2022-11-14T23:42:11.611Z,100068.66
2022-11-14T23:44:56.922Z,100060.00
2022-11-14T23:47:42.413Z,100072.31
2022-11-14T23:50:27.740Z,100067.00
2022-11-14T23:53:12.585Z,100048.34
2022-11-14T23:55:59.998Z,100062.31
2022-11-14T23:58:45.972Z,100059.97
